Time;durP1;ratioP1;P1;durP2;ratioP2;P2;SDS_P1;SDS_P2;PMS_P1;PMS_P2;Temp;Humidity;BMP_temperature;BMP_pressure;BME280_temperature;BME280_humidity;BME280_pressure;Samples;Min_cycle;Max_cycle;Signal;HPM_P1;HPM_P2
2021/05/25 00:03:14;;;;;;;3.75;1.60;;;;;;;;;;6878731;28;20772;-86
2021/05/25 00:06:34;;;;;;;4.32;1.40;;;;;;;;;;6875240;28;20069;-85
2021/05/25 00:09:54;;;;;;;7.18;1.77;;;;;;;;;;6886619;28;20071;-86
2021/05/25 00:13:15;;;;;;;3.20;1.40;;;;;;;;;;6886070;28;20057;-86
2021/05/25 00:16:36;;;;;;;7.88;1.42;;;;;;;;;;6877414;28;20046;-86
2021/05/25 00:19:56;;;;;;;7.03;1.30;;;;;;;;;;6886512;28;20177;-85
2021/05/25 00:23:17;;;;;;;2.70;1.45;;;;;;;;;;6887465;28;20052;-85
2021/05/25 00:26:38;;;;;;;6.10;1.48;;;;;;;;;;6867986;28;20043;-85
2021/05/25 00:29:58;;;;;;;5.38;1.17;;;;;;;;;;6946285;23;20104;-78
2021/05/25 00:33:19;;;;;;;4.78;1.83;;;;;;;;;;6906719;28;20690;-77
2021/05/25 00:36:39;;;;;;;9.25;1.45;;;;;;;;;;6910541;28;20045;-76
2021/05/25 00:40:00;;;;;;;7.38;1.42;;;;;;;;;;6913016;28;20082;-77
2021/05/25 00:43:21;;;;;;;7.60;1.55;;;;;;;;;;6932543;28;20049;-76
2021/05/25 00:46:42;;;;;;;4.70;1.35;;;;;;;;;;6917972;28;20038;-76
2021/05/25 00:50:12;;;;;;;6.78;1.30;;;;;;;;;;6915636;28;20133;-77
2021/05/25 00:53:32;;;;;;;2.28;1.40;;;;;;;;;;6912455;28;20053;-77
2021/05/25 00:56:52;;;;;;;2.40;1.70;;;;;;;;;;6916041;28;20096;-77
2021/05/25 01:00:15;;;;;;;2.80;1.70;;;;;;;;;;6916128;28;20054;-76
2021/05/25 01:03:35;;;;;;;2.13;1.40;;;;;;;;;;6917913;28;20496;-76
2021/05/25 01:06:56;;;;;;;6.15;1.70;;;;;;;;;;6914330;28;20073;-76
2021/05/25 01:10:21;;;;;;;2.05;1.40;;;;;;;;;;6895150;28;20038;-76
2021/05/25 01:13:48;;;;;;;2.05;1.42;;;;;;;;;;6899728;28;20049;-76
2021/05/25 01:17:09;;;;;;;5.57;1.48;;;;;;;;;;6924510;28;20090;-77
2021/05/25 01:20:31;;;;;;;2.70;1.20;;;;;;;;;;6924136;28;20097;-76
2021/05/25 01:23:52;;;;;;;3.88;1.38;;;;;;;;;;6919006;28;20073;-75
2021/05/25 01:27:13;;;;;;;12.70;1.63;;;;;;;;;;6915274;28;20053;-75
2021/05/25 01:30:36;;;;;;;9.30;1.40;;;;;;;;;;6931205;28;20106;-76
2021/05/25 01:33:56;;;;;;;6.60;1.42;;;;;;;;;;6897673;28;20053;-76
2021/05/25 01:37:16;;;;;;;3.63;1.30;;;;;;;;;;6913229;28;20042;-76
2021/05/25 01:40:38;;;;;;;5.10;1.65;;;;;;;;;;6915284;28;20072;-76
2021/05/25 01:43:58;;;;;;;5.32;1.50;;;;;;;;;;6914850;28;20042;-75
2021/05/25 01:47:19;;;;;;;1.40;1.30;;;;;;;;;;6913992;28;20488;-76
2021/05/25 01:50:40;;;;;;;1.58;1.15;;;;;;;;;;6914598;28;20112;-76
2021/05/25 01:54:01;;;;;;;7.22;1.30;;;;;;;;;;6930278;28;20123;-76
2021/05/25 01:57:22;;;;;;;4.10;1.40;;;;;;;;;;6913856;28;20376;-76
2021/05/25 02:00:48;;;;;;;8.82;1.50;;;;;;;;;;6913485;28;20484;-74
2021/05/25 02:04:08;;;;;;;2.17;1.63;;;;;;;;;;6911910;28;20385;-75
2021/05/25 02:07:28;;;;;;;3.90;1.60;;;;;;;;;;6906333;28;20504;-75
2021/05/25 02:10:53;;;;;;;3.45;1.40;;;;;;;;;;6914706;28;20531;-75
2021/05/25 02:14:14;;;;;;;2.00;1.38;;;;;;;;;;6914124;28;20420;-76
2021/05/25 02:17:34;;;;;;;1.88;1.30;;;;;;;;;;6899616;28;20531;-76
2021/05/25 02:20:57;;;;;;;1.67;1.42;;;;;;;;;;6913197;28;20095;-75
2021/05/25 02:24:17;;;;;;;2.70;1.52;;;;;;;;;;6913235;28;20069;-76
2021/05/25 02:27:38;;;;;;;5.13;1.60;;;;;;;;;;6914871;28;20046;-77
2021/05/25 02:30:59;;;;;;;2.25;1.52;;;;;;;;;;6913664;28;20057;-76
2021/05/25 02:34:19;;;;;;;3.40;1.63;;;;;;;;;;6911114;28;20141;-76
2021/05/25 02:37:40;;;;;;;1.30;1.20;;;;;;;;;;6911170;28;20046;-75
2021/05/25 02:41:00;;;;;;;2.08;1.50;;;;;;;;;;6905445;28;20081;-75
2021/05/25 02:44:21;;;;;;;3.85;1.60;;;;;;;;;;6900982;28;20372;-75
2021/05/25 02:47:41;;;;;;;3.00;1.33;;;;;;;;;;6909749;28;20050;-76
2021/05/25 02:51:02;;;;;;;1.70;1.60;;;;;;;;;;6910357;28;20137;-75
2021/05/25 02:54:22;;;;;;;1.42;1.10;;;;;;;;;;6892841;28;20058;-75
2021/05/25 02:57:43;;;;;;;3.35;1.50;;;;;;;;;;6922267;28;20129;-76
2021/05/25 03:01:03;;;;;;;2.03;1.30;;;;;;;;;;6913046;28;20116;-77
2021/05/25 03:04:23;;;;;;;1.23;1.13;;;;;;;;;;6914212;28;20046;-77
2021/05/25 03:07:45;;;;;;;1.50;1.40;;;;;;;;;;6913005;28;20109;-77
2021/05/25 03:11:05;;;;;;;1.70;1.60;;;;;;;;;;6907591;28;20129;-77
2021/05/25 03:14:26;;;;;;;1.50;1.40;;;;;;;;;;6900820;28;20057;-78
2021/05/25 03:17:46;;;;;;;1.48;1.38;;;;;;;;;;6892138;28;20124;-77
2021/05/25 03:21:07;;;;;;;3.00;1.63;;;;;;;;;;6899687;28;20042;-78
2021/05/25 03:24:28;;;;;;;1.50;1.30;;;;;;;;;;6882406;28;20500;-78
2021/05/25 03:27:49;;;;;;;1.77;1.50;;;;;;;;;;6912810;28;20038;-77
2021/05/25 03:31:10;;;;;;;2.28;1.40;;;;;;;;;;6911731;28;20045;-77
2021/05/25 03:34:30;;;;;;;1.58;1.48;;;;;;;;;;6913169;28;20089;-76
2021/05/25 03:37:52;;;;;;;6.07;1.45;;;;;;;;;;6912967;28;20506;-77
2021/05/25 03:41:12;;;;;;;1.55;1.30;;;;;;;;;;6895208;28;20467;-76
2021/05/25 03:44:32;;;;;;;1.50;1.40;;;;;;;;;;6912071;28;20050;-77
2021/05/25 03:47:54;;;;;;;2.95;1.58;;;;;;;;;;6901313;28;20050;-77
2021/05/25 03:51:14;;;;;;;1.52;1.30;;;;;;;;;;6900993;28;20109;-76
2021/05/25 03:54:38;;;;;;;1.67;1.20;;;;;;;;;;6904853;28;20046;-78
2021/05/25 04:01:38;;;;;;;3.65;1.38;;;;;;;;;;6899798;28;20053;-77
2021/05/25 04:05:00;;;;;;;2.08;1.55;;;;;;;;;;6913177;28;20061;-78
2021/05/25 04:08:21;;;;;;;1.50;1.40;;;;;;;;;;6895719;28;20472;-78
2021/05/25 04:11:41;;;;;;;2.47;1.30;;;;;;;;;;6914593;28;20514;-77
2021/05/25 04:15:02;;;;;;;1.48;1.38;;;;;;;;;;6917362;28;20050;-77
2021/05/25 04:18:22;;;;;;;3.05;1.58;;;;;;;;;;6916442;28;20092;-77
2021/05/25 04:21:43;;;;;;;1.42;1.33;;;;;;;;;;6914683;28;20149;-78
2021/05/25 04:25:05;;;;;;;1.65;1.50;;;;;;;;;;6913636;28;20049;-77
2021/05/25 04:28:26;;;;;;;1.60;1.50;;;;;;;;;;6914492;28;20056;-78
2021/05/25 04:31:46;;;;;;;2.15;1.70;;;;;;;;;;6917400;28;20053;-78
2021/05/25 04:35:07;;;;;;;2.25;1.60;;;;;;;;;;6900685;28;20061;-78
2021/05/25 04:38:28;;;;;;;2.97;1.88;;;;;;;;;;6915590;28;20062;-78
2021/05/25 04:41:48;;;;;;;2.20;1.80;;;;;;;;;;6912742;28;20045;-78
2021/05/25 04:45:09;;;;;;;1.80;1.70;;;;;;;;;;6916514;28;20269;-78
2021/05/25 04:48:30;;;;;;;2.70;1.88;;;;;;;;;;6899109;28;20189;-78
2021/05/25 04:51:50;;;;;;;1.83;1.63;;;;;;;;;;6915195;28;20041;-75
2021/05/25 04:55:13;;;;;;;2.17;1.92;;;;;;;;;;6913218;28;20556;-76
2021/05/25 04:58:34;;;;;;;2.88;2.38;;;;;;;;;;6913843;28;20407;-76
2021/05/25 05:01:54;;;;;;;2.83;2.00;;;;;;;;;;6917052;28;20483;-77
2021/05/25 05:05:15;;;;;;;3.97;1.90;;;;;;;;;;6916716;28;20526;-77
2021/05/25 05:08:35;;;;;;;4.15;1.92;;;;;;;;;;6917239;28;20058;-76
2021/05/25 05:11:56;;;;;;;2.58;1.83;;;;;;;;;;6904871;28;20419;-77
2021/05/25 05:15:17;;;;;;;1.75;1.65;;;;;;;;;;6917007;28;20050;-76
2021/05/25 05:18:38;;;;;;;1.52;1.33;;;;;;;;;;6915916;28;20176;-77
2021/05/25 05:21:58;;;;;;;1.73;1.20;;;;;;;;;;6915516;28;20050;-77
2021/05/25 05:25:19;;;;;;;1.50;1.40;;;;;;;;;;6915090;28;20081;-77
2021/05/25 05:28:39;;;;;;;4.20;1.60;;;;;;;;;;6916307;28;20411;-77
2021/05/25 05:32:00;;;;;;;1.77;1.50;;;;;;;;;;6913991;28;20133;-78
2021/05/25 05:35:20;;;;;;;3.25;3.00;;;;;;;;;;6916117;28;20050;-77
2021/05/25 05:38:40;;;;;;;3.50;3.20;;;;;;;;;;6913703;28;20498;-76
2021/05/25 05:42:01;;;;;;;3.72;3.00;;;;;;;;;;6913561;28;20137;-76
2021/05/25 05:45:21;;;;;;;9.35;8.75;;;;;;;;;;6916417;28;20168;-77
2021/05/25 05:48:42;;;;;;;9.52;8.90;;;;;;;;;;6915034;28;20046;-77
2021/05/25 05:52:03;;;;;;;8.43;7.82;;;;;;;;;;6914468;28;20057;-76
2021/05/25 05:55:24;;;;;;;3.17;1.58;;;;;;;;;;6898553;28;20054;-77
2021/05/25 05:58:45;;;;;;;3.75;1.92;;;;;;;;;;6913877;28;20487;-76
2021/05/25 06:02:06;;;;;;;1.73;1.63;;;;;;;;;;6897493;28;20137;-76
2021/05/25 06:05:26;;;;;;;1.73;1.58;;;;;;;;;;6913632;28;20046;-78
2021/05/25 06:08:47;;;;;;;3.75;1.70;;;;;;;;;;6908082;28;20161;-76
2021/05/25 06:12:08;;;;;;;1.92;1.65;;;;;;;;;;6900822;28;20050;-75
2021/05/25 06:15:28;;;;;;;2.35;1.70;;;;;;;;;;6891215;28;20073;-76
2021/05/25 06:18:48;;;;;;;4.72;2.08;;;;;;;;;;6891197;28;20081;-76
2021/05/25 06:22:09;;;;;;;1.77;1.58;;;;;;;;;;6893952;28;20077;-77
2021/05/25 06:25:30;;;;;;;1.60;1.50;;;;;;;;;;6912760;28;20053;-76
2021/05/25 06:28:51;;;;;;;1.50;1.40;;;;;;;;;;6909457;28;20564;-77
2021/05/25 06:32:11;;;;;;;5.18;1.70;;;;;;;;;;6912264;28;20075;-78
2021/05/25 06:35:34;;;;;;;1.67;1.58;;;;;;;;;;6894453;28;20046;-77
2021/05/25 06:38:55;;;;;;;1.63;1.52;;;;;;;;;;6907791;28;20050;-78
2021/05/25 06:42:15;;;;;;;1.80;1.63;;;;;;;;;;6915317;28;20145;-76
2021/05/25 06:45:36;;;;;;;4.45;1.65;;;;;;;;;;6923120;28;20058;-78
2021/05/25 06:48:56;;;;;;;3.72;1.67;;;;;;;;;;6903133;28;20050;-77
2021/05/25 06:52:17;;;;;;;1.65;1.55;;;;;;;;;;6910944;28;20084;-78
2021/05/25 06:55:37;;;;;;;1.77;1.67;;;;;;;;;;6912154;28;20042;-76
2021/05/25 06:58:58;;;;;;;1.65;1.55;;;;;;;;;;6913731;28;20129;-77
2021/05/25 07:02:22;;;;;;;1.67;1.58;;;;;;;;;;6896827;28;20054;-76
2021/05/25 07:05:57;;;;;;;1.63;1.50;;;;;;;;;;7159399;27;20160;-76
2021/05/25 07:09:18;;;;;;;2.33;1.60;;;;;;;;;;7110929;27;20054;-76
2021/05/25 07:12:38;;;;;;;3.17;1.63;;;;;;;;;;7133200;27;20069;-77
2021/05/25 07:15:59;;;;;;;1.42;1.33;;;;;;;;;;7133158;27;20046;-77
2021/05/25 07:19:19;;;;;;;2.47;1.63;;;;;;;;;;7133296;27;20198;-77
2021/05/25 07:22:40;;;;;;;1.52;1.42;;;;;;;;;;7132674;27;20536;-78
2021/05/25 07:26:01;;;;;;;2.08;1.80;;;;;;;;;;7114866;27;20129;-76
2021/05/25 07:29:22;;;;;;;1.98;1.80;;;;;;;;;;7114246;27;20038;-77
2021/05/25 07:32:43;;;;;;;1.23;1.15;;;;;;;;;;7132545;27;20050;-76
2021/05/25 07:36:04;;;;;;;1.80;1.67;;;;;;;;;;7132971;27;20043;-77
2021/05/25 07:39:25;;;;;;;1.92;1.70;;;;;;;;;;7132922;27;20082;-77
2021/05/25 07:42:46;;;;;;;4.75;2.17;;;;;;;;;;7101949;27;20096;-78
2021/05/25 07:46:06;;;;;;;6.55;1.70;;;;;;;;;;7113522;27;20050;-76
2021/05/25 07:49:27;;;;;;;2.10;1.85;;;;;;;;;;7102353;27;20096;-77
2021/05/25 07:52:50;;;;;;;2.08;1.80;;;;;;;;;;7113647;27;20377;-77
2021/05/25 07:56:10;;;;;;;1.60;1.50;;;;;;;;;;7113643;27;20042;-76
2021/05/25 07:59:31;;;;;;;2.30;1.50;;;;;;;;;;7111877;27;20049;-76
2021/05/25 08:02:51;;;;;;;1.70;1.60;;;;;;;;;;7131489;27;20066;-75
2021/05/25 08:06:12;;;;;;;3.58;1.60;;;;;;;;;;7131894;27;20046;-77
2021/05/25 08:09:32;;;;;;;1.63;1.52;;;;;;;;;;7131441;27;20053;-75
2021/05/25 08:12:53;;;;;;;10.25;1.60;;;;;;;;;;7129244;27;20047;-75
2021/05/25 08:16:15;;;;;;;1.60;1.50;;;;;;;;;;7116745;27;20172;-75
2021/05/25 08:19:38;;;;;;;21.42;1.98;;;;;;;;;;7111728;27;20038;-77
2021/05/25 08:23:00;;;;;;;2.25;1.60;;;;;;;;;;7112194;27;20035;-76
2021/05/25 08:26:25;;;;;;;1.65;1.45;;;;;;;;;;7112335;27;20196;-76
2021/05/25 08:29:45;;;;;;;1.85;1.50;;;;;;;;;;7094157;27;20051;-76
2021/05/25 08:33:06;;;;;;;1.40;1.27;;;;;;;;;;7111548;27;20157;-76
2021/05/25 08:36:26;;;;;;;1.73;1.50;;;;;;;;;;7091230;27;20046;-76
2021/05/25 08:39:47;;;;;;;1.52;1.42;;;;;;;;;;7098698;27;20039;-76
2021/05/25 08:43:07;;;;;;;1.92;1.70;;;;;;;;;;7092528;27;20039;-76
2021/05/25 08:46:28;;;;;;;1.63;1.52;;;;;;;;;;7111786;27;20103;-76
2021/05/25 08:49:49;;;;;;;1.70;1.60;;;;;;;;;;7075643;27;20043;-76
2021/05/25 08:53:10;;;;;;;4.20;1.65;;;;;;;;;;7090489;27;20134;-78
2021/05/25 08:56:30;;;;;;;13.02;1.60;;;;;;;;;;7096787;27;20388;-78
2021/05/25 08:59:51;;;;;;;9.60;2.47;;;;;;;;;;7096849;27;20058;-78
2021/05/25 09:03:15;;;;;;;8.18;1.88;;;;;;;;;;7096143;27;20063;-79
2021/05/25 09:06:40;;;;;;;11.95;1.90;;;;;;;;;;7077765;27;20039;-78
2021/05/25 09:10:02;;;;;;;2.33;1.38;;;;;;;;;;7079019;27;20050;-78
2021/05/25 09:13:24;;;;;;;9.48;1.70;;;;;;;;;;7070675;27;20047;-77
2021/05/25 09:16:45;;;;;;;2.22;1.50;;;;;;;;;;7076646;27;20103;-78
2021/05/25 09:20:09;;;;;;;4.70;1.48;;;;;;;;;;7093995;27;20047;-77
2021/05/25 09:23:32;;;;;;;5.78;1.50;;;;;;;;;;7094399;27;20046;-78
2021/05/25 09:26:58;;;;;;;4.35;1.88;;;;;;;;;;7109028;27;20376;-77
2021/05/25 09:30:22;;;;;;;4.97;1.40;;;;;;;;;;7103423;27;20053;-77
2021/05/25 09:33:42;;;;;;;5.30;1.58;;;;;;;;;;7090834;27;20461;-77
2021/05/25 09:37:09;;;;;;;1.67;1.48;;;;;;;;;;7105634;27;20495;-77
2021/05/25 09:40:31;;;;;;;1.63;1.52;;;;;;;;;;7073196;27;20078;-78
2021/05/25 09:43:53;;;;;;;3.42;1.77;;;;;;;;;;7086812;27;20051;-77
2021/05/25 09:47:13;;;;;;;3.95;2.53;;;;;;;;;;7090938;27;20479;-78
2021/05/25 09:50:38;;;;;;;8.45;3.10;;;;;;;;;;7091768;27;20111;-77
2021/05/25 09:54:02;;;;;;;7.00;4.07;;;;;;;;;;7109829;27;20051;-76
2021/05/25 09:57:22;;;;;;;7.22;4.70;;;;;;;;;;7090956;27;20484;-77
2021/05/25 10:00:45;;;;;;;5.47;4.15;;;;;;;;;;7109200;27;20041;-75
2021/05/25 10:04:15;;;;;;;5.60;4.05;;;;;;;;;;7108517;27;20520;-77
2021/05/25 10:07:36;;;;;;;4.60;3.80;;;;;;;;;;7090939;27;20051;-78
2021/05/25 10:10:58;;;;;;;13.88;11.45;;;;;;;;;;7103269;27;20050;-79
2021/05/25 10:14:19;;;;;;;14.10;8.25;;;;;;;;;;7077324;27;20096;-76
2021/05/25 10:17:56;;;;;;;13.07;9.60;;;;;;;;;;7088848;27;20138;-76
2021/05/25 10:21:18;;;;;;;17.70;12.85;;;;;;;;;;7091666;27;20047;-77
2021/05/25 10:24:38;;;;;;;14.93;12.65;;;;;;;;;;7076204;27;20064;-77
2021/05/25 10:28:00;;;;;;;16.55;13.60;;;;;;;;;;7094842;27;20353;-78
2021/05/25 10:31:29;;;;;;;18.02;16.13;;;;;;;;;;7076501;27;20047;-76
2021/05/25 10:34:52;;;;;;;16.63;14.63;;;;;;;;;;7074158;27;20043;-76
2021/05/25 10:38:13;;;;;;;18.67;13.20;;;;;;;;;;7089119;27;20076;-77
2021/05/25 10:41:35;;;;;;;18.08;14.48;;;;;;;;;;7098650;27;20082;-76
2021/05/25 10:45:11;;;;;;;14.65;12.55;;;;;;;;;;7098091;27;20047;-78
2021/05/25 10:49:32;;;;;;;18.55;13.85;;;;;;;;;;7094967;27;20051;-77
2021/05/25 10:52:33;;;;;;;15.70;12.95;;;;;;;;;;7089812;27;20041;-77
2021/05/25 10:55:55;;;;;;;14.90;11.57;;;;;;;;;;7087904;27;20042;-75
2021/05/25 10:59:17;;;;;;;12.25;10.60;;;;;;;;;;7063744;27;20129;-76
2021/05/25 11:03:04;;;;;;;23.90;10.95;;;;;;;;;;7090165;27;20043;-77
2021/05/25 11:06:30;;;;;;;14.05;10.40;;;;;;;;;;7061354;27;20045;-77
2021/05/25 11:09:50;;;;;;;11.35;9.80;;;;;;;;;;7088560;27;20476;-77
2021/05/25 11:13:14;;;;;;;11.35;9.95;;;;;;;;;;7103673;27;20054;-79
2021/05/25 11:16:36;;;;;;;13.48;9.73;;;;;;;;;;7100473;27;20038;-77
2021/05/25 11:20:09;;;;;;;11.02;9.02;;;;;;;;;;7088237;27;20054;-78
2021/05/25 11:23:41;;;;;;;9.80;8.80;;;;;;;;;;7073270;27;20053;-77
2021/05/25 11:27:05;;;;;;;11.30;8.70;;;;;;;;;;7107201;27;20404;-77
2021/05/25 11:30:30;;;;;;;14.82;7.55;;;;;;;;;;7101725;27;20046;-77
2021/05/25 11:33:51;;;;;;;8.88;7.72;;;;;;;;;;7105068;27;20054;-76
2021/05/25 11:37:16;;;;;;;9.25;7.25;;;;;;;;;;7076483;27;20038;-75
2021/05/25 11:40:38;;;;;;;9.68;7.07;;;;;;;;;;7106405;27;20038;-77
2021/05/25 11:44:11;;;;;;;8.60;7.13;;;;;;;;;;7101330;27;20082;-76
2021/05/25 11:47:31;;;;;;;9.63;7.30;;;;;;;;;;7070953;27;20046;-75
2021/05/25 11:50:51;;;;;;;10.80;6.85;;;;;;;;;;7106953;27;20047;-77
2021/05/25 11:54:13;;;;;;;10.20;6.20;;;;;;;;;;7071652;27;20047;-77
2021/05/25 11:57:39;;;;;;;7.22;5.72;;;;;;;;;;7090639;27;20441;-78
2021/05/25 12:01:00;;;;;;;8.88;6.10;;;;;;;;;;7104431;27;20472;-77
2021/05/25 12:04:21;;;;;;;8.27;5.50;;;;;;;;;;7074866;27;20126;-78
2021/05/25 12:07:53;;;;;;;6.55;5.00;;;;;;;;;;7079739;27;20509;-76
2021/05/25 12:11:13;;;;;;;12.93;5.60;;;;;;;;;;7090896;27;20038;-78
2021/05/25 12:14:34;;;;;;;9.40;4.80;;;;;;;;;;7110621;27;20129;-77
2021/05/25 12:17:56;;;;;;;5.78;4.60;;;;;;;;;;7109443;27;20042;-78
2021/05/25 12:21:17;;;;;;;16.15;4.57;;;;;;;;;;7090105;27;20046;-78
2021/05/25 12:24:38;;;;;;;6.18;4.30;;;;;;;;;;7072554;27;20134;-78
2021/05/25 12:28:01;;;;;;;7.90;4.10;;;;;;;;;;7089394;27;20043;-79
2021/05/25 12:31:28;;;;;;;6.30;3.85;;;;;;;;;;7083890;22;20052;-79
2021/05/25 12:34:49;;;;;;;5.68;3.80;;;;;;;;;;7022099;28;20040;-77
2021/05/25 12:38:12;;;;;;;6.63;3.72;;;;;;;;;;6993446;28;20127;-78
2021/05/25 12:41:53;;;;;;;4.25;3.50;;;;;;;;;;7007717;28;20048;-79
2021/05/25 12:45:15;;;;;;;9.80;3.67;;;;;;;;;;7023863;28;20048;-79
2021/05/25 12:48:41;;;;;;;4.43;3.00;;;;;;;;;;7025575;28;20207;-79
2021/05/25 12:52:17;;;;;;;5.63;3.22;;;;;;;;;;7022256;28;20066;-78
2021/05/25 12:55:58;;;;;;;4.00;3.17;;;;;;;;;;7014774;28;20044;-79
2021/05/25 12:59:19;;;;;;;6.28;3.10;;;;;;;;;;7016715;28;20055;-78
2021/05/25 13:02:48;;;;;;;5.63;2.53;;;;;;;;;;7014889;28;20135;-78
2021/05/25 13:06:11;;;;;;;6.40;3.10;;;;;;;;;;7010601;28;20496;-79
2021/05/25 13:09:53;;;;;;;5.18;2.92;;;;;;;;;;6991851;28;20044;-80
2021/05/25 13:13:17;;;;;;;4.20;2.40;;;;;;;;;;7020846;28;20040;-80
2021/05/25 13:16:38;;;;;;;3.15;2.45;;;;;;;;;;7006579;28;20040;-80
2021/05/25 13:19:58;;;;;;;10.25;2.65;;;;;;;;;;7011856;28;20052;-80
2021/05/25 13:23:22;;;;;;;5.13;2.58;;;;;;;;;;7009284;28;20047;-80
2021/05/25 13:26:42;;;;;;;4.55;2.72;;;;;;;;;;7003221;28;20382;-77
2021/05/25 13:30:10;;;;;;;4.18;2.50;;;;;;;;;;7004492;28;20553;-80
2021/05/25 13:33:31;;;;;;;2.42;2.05;;;;;;;;;;7014014;28;20048;-79
2021/05/25 13:36:53;;;;;;;4.32;2.20;;;;;;;;;;7007138;28;20044;-79
2021/05/25 13:40:14;;;;;;;7.00;2.25;;;;;;;;;;7024973;28;20093;-79
2021/05/25 13:43:34;;;;;;;4.35;2.30;;;;;;;;;;7022050;28;20048;-78
2021/05/25 13:46:55;;;;;;;6.93;1.95;;;;;;;;;;7023437;28;20097;-80
2021/05/25 13:50:27;;;;;;;3.05;2.00;;;;;;;;;;7023382;28;20040;-79
2021/05/25 13:53:51;;;;;;;1.98;1.75;;;;;;;;;;7021919;28;20048;-80
2021/05/25 13:57:20;;;;;;;2.15;1.83;;;;;;;;;;7009400;28;20040;-80
2021/05/25 14:04:01;;;;;;;6.43;2.10;;;;;;;;;;7001180;28;20585;-82
2021/05/25 14:07:24;;;;;;;7.07;2.20;;;;;;;;;;7023128;28;20140;-81
2021/05/25 14:10:45;;;;;;;9.88;2.33;;;;;;;;;;7024719;28;20036;-80
2021/05/25 14:14:05;;;;;;;9.60;1.75;;;;;;;;;;7023317;28;20040;-83
2021/05/25 14:17:26;;;;;;;7.20;2.33;;;;;;;;;;7024067;28;21017;-81
2021/05/25 14:20:46;;;;;;;4.00;1.80;;;;;;;;;;7007405;28;20493;-80
2021/05/25 14:24:07;;;;;;;6.25;1.80;;;;;;;;;;7003324;28;20044;-82
2021/05/25 14:27:27;;;;;;;3.60;2.33;;;;;;;;;;7023157;28;20040;-82
2021/05/25 14:30:48;;;;;;;2.92;1.73;;;;;;;;;;7005503;28;20386;-81
2021/05/25 14:34:09;;;;;;;1.75;1.63;;;;;;;;;;7023449;28;20054;-82
2021/05/25 14:37:29;;;;;;;2.83;2.00;;;;;;;;;;7024008;28;20051;-81
2021/05/25 14:40:50;;;;;;;3.22;1.83;;;;;;;;;;7023543;28;20040;-81
2021/05/25 14:44:10;;;;;;;7.93;2.30;;;;;;;;;;7024088;28;20058;-81
2021/05/25 14:47:30;;;;;;;6.80;2.33;;;;;;;;;;7022972;28;20039;-81
2021/05/25 14:50:52;;;;;;;6.15;2.22;;;;;;;;;;7024526;28;20452;-81
2021/05/25 14:54:12;;;;;;;2.45;1.65;;;;;;;;;;7022051;28;20066;-81
2021/05/25 14:57:33;;;;;;;2.03;1.77;;;;;;;;;;7020235;28;20362;-82
2021/05/25 15:00:58;;;;;;;5.57;2.05;;;;;;;;;;7014507;28;20143;-80
2021/05/25 15:04:24;;;;;;;3.75;1.92;;;;;;;;;;7015116;28;20048;-83
2021/05/25 15:07:45;;;;;;;18.27;2.58;;;;;;;;;;7025211;28;20052;-81
2021/05/25 15:11:05;;;;;;;4.80;2.00;;;;;;;;;;7024809;28;20135;-80
2021/05/25 15:14:26;;;;;;;4.13;1.92;;;;;;;;;;7016980;28;20037;-81
2021/05/25 15:17:47;;;;;;;8.63;2.03;;;;;;;;;;7001536;28;20475;-81
2021/05/25 15:21:08;;;;;;;4.90;1.90;;;;;;;;;;7026805;28;20052;-81
2021/05/25 15:24:29;;;;;;;3.92;2.08;;;;;;;;;;7008802;28;20035;-80
2021/05/25 15:27:51;;;;;;;6.15;1.77;;;;;;;;;;7005711;28;20136;-81
2021/05/25 15:31:11;;;;;;;7.90;1.95;;;;;;;;;;7025239;28;20048;-81
2021/05/25 15:34:32;;;;;;;6.43;1.92;;;;;;;;;;7022481;28;20102;-80
2021/05/25 15:37:52;;;;;;;4.00;1.40;;;;;;;;;;7024277;28;20082;-80
2021/05/25 15:41:13;;;;;;;1.67;1.30;;;;;;;;;;7014724;28;20040;-80
2021/05/25 15:44:33;;;;;;;1.80;1.30;;;;;;;;;;7022574;28;20105;-81
2021/05/25 15:47:54;;;;;;;2.20;1.60;;;;;;;;;;7026890;28;21361;-80
2021/05/25 15:51:16;;;;;;;3.13;1.65;;;;;;;;;;7014710;28;20094;-80
2021/05/25 15:54:36;;;;;;;4.30;1.70;;;;;;;;;;7027400;28;20048;-79
2021/05/25 15:57:57;;;;;;;3.95;1.58;;;;;;;;;;7026667;28;20047;-79
2021/05/25 16:01:17;;;;;;;6.68;1.80;;;;;;;;;;7019391;28;20123;-79
2021/05/25 16:04:37;;;;;;;5.60;1.30;;;;;;;;;;7009747;28;20052;-80
2021/05/25 16:07:58;;;;;;;3.15;1.70;;;;;;;;;;7018780;28;20108;-80
2021/05/25 16:11:19;;;;;;;3.20;1.58;;;;;;;;;;7027986;28;20048;-80
2021/05/25 16:14:40;;;;;;;4.78;1.77;;;;;;;;;;7014427;28;20063;-79
2021/05/25 16:18:00;;;;;;;3.47;1.52;;;;;;;;;;7026142;28;20135;-80
2021/05/25 16:21:20;;;;;;;2.00;1.40;;;;;;;;;;7025399;28;20607;-80
2021/05/25 16:24:41;;;;;;;7.32;1.70;;;;;;;;;;7021579;28;20136;-80
2021/05/25 16:28:04;;;;;;;2.35;1.50;;;;;;;;;;7016657;28;20049;-80
2021/05/25 16:31:24;;;;;;;1.98;1.50;;;;;;;;;;7025490;28;20044;-80
2021/05/25 16:34:44;;;;;;;2.45;1.40;;;;;;;;;;7026146;28;20469;-79
2021/05/25 16:38:05;;;;;;;4.82;1.90;;;;;;;;;;7024989;28;20063;-79
2021/05/25 16:41:26;;;;;;;6.50;1.65;;;;;;;;;;7026554;28;20079;-79
2021/05/25 16:44:46;;;;;;;2.63;1.50;;;;;;;;;;7025821;28;20047;-78
2021/05/25 16:48:07;;;;;;;1.73;1.20;;;;;;;;;;7025444;28;20130;-80
2021/05/25 16:51:28;;;;;;;2.72;1.60;;;;;;;;;;7025629;28;20134;-80
2021/05/25 16:54:48;;;;;;;3.10;1.58;;;;;;;;;;7024942;28;20048;-79
2021/05/25 16:58:09;;;;;;;1.80;1.50;;;;;;;;;;7025195;28;20048;-79
2021/05/25 17:01:52;;;;;;;3.53;1.50;;;;;;;;;;7025146;28;20080;-79
2021/05/25 17:19:40;;;;;;;7.88;1.30;;;;;;;;;;7007185;28;20036;-79
2021/05/25 17:23:01;;;;;;;3.45;1.42;;;;;;;;;;7016310;28;20048;-81
2021/05/25 17:30:00;;;;;;;6.28;1.30;;;;;;;;;;7017327;28;20044;-80
2021/05/25 17:33:20;;;;;;;3.00;1.10;;;;;;;;;;7023086;28;20181;-81
2021/05/25 17:36:41;;;;;;;4.22;1.45;;;;;;;;;;7004120;28;20051;-81
2021/05/25 17:40:03;;;;;;;5.25;1.40;;;;;;;;;;7004676;28;20540;-80
2021/05/25 17:43:24;;;;;;;1.77;1.38;;;;;;;;;;6996755;28;20056;-80
2021/05/25 17:46:44;;;;;;;1.73;1.27;;;;;;;;;;7024513;28;20427;-81
2021/05/25 17:50:09;;;;;;;1.77;1.50;;;;;;;;;;7023768;28;20048;-81
2021/05/25 17:53:30;;;;;;;2.60;1.67;;;;;;;;;;7024475;28;20048;-84
2021/05/25 17:56:50;;;;;;;6.72;1.40;;;;;;;;;;7023492;28;20055;-82
2021/05/25 18:00:12;;;;;;;5.70;1.33;;;;;;;;;;7024493;28;20044;-83
2021/05/25 18:03:33;;;;;;;2.10;1.35;;;;;;;;;;7024165;28;20393;-81
2021/05/25 18:06:55;;;;;;;2.47;1.40;;;;;;;;;;7024230;28;20549;-82
2021/05/25 18:10:18;;;;;;;5.28;1.40;;;;;;;;;;7023736;28;20048;-83
2021/05/25 18:13:38;;;;;;;6.90;1.60;;;;;;;;;;7024187;28;20044;-83
2021/05/25 18:16:59;;;;;;;2.72;1.30;;;;;;;;;;7023154;28;20408;-83
2021/05/25 18:20:20;;;;;;;2.80;1.65;;;;;;;;;;7023777;28;20126;-82
2021/05/25 18:23:43;;;;;;;9.05;2.22;;;;;;;;;;7023156;28;20446;-84
2021/05/25 18:27:03;;;;;;;23.20;2.00;;;;;;;;;;7023734;28;20047;-84
2021/05/25 18:30:27;;;;;;;5.35;2.10;;;;;;;;;;7024290;28;20052;-84
2021/05/25 18:37:17;;;;;;;9.30;1.85;;;;;;;;;;7023618;28;20059;-83
2021/05/25 18:44:16;;;;;;;8.45;2.67;;;;;;;;;;7022894;28;20064;-82
2021/05/25 18:47:37;;;;;;;11.15;3.20;;;;;;;;;;7022853;28;20048;-82
2021/05/25 18:50:57;;;;;;;14.80;3.88;;;;;;;;;;7022411;28;20374;-82
2021/05/25 18:54:19;;;;;;;11.20;3.55;;;;;;;;;;7025513;28;20071;-81
2021/05/25 18:58:00;;;;;;;15.00;4.18;;;;;;;;;;7016561;28;20047;-82
2021/05/25 19:01:20;;;;;;;9.65;3.85;;;;;;;;;;7025094;28;20051;-82
2021/05/25 19:04:41;;;;;;;11.25;3.85;;;;;;;;;;7022524;28;20472;-82
2021/05/25 19:08:01;;;;;;;10.93;3.75;;;;;;;;;;7023141;28;20178;-82
2021/05/25 19:11:22;;;;;;;9.73;3.30;;;;;;;;;;7012329;28;20040;-82
2021/05/25 19:14:45;;;;;;;17.70;4.00;;;;;;;;;;7013650;28;20089;-82
2021/05/25 19:18:05;;;;;;;8.52;3.30;;;;;;;;;;7021257;28;20052;-82
2021/05/25 19:21:41;;;;;;;10.10;3.17;;;;;;;;;;7021243;28;20128;-82
2021/05/25 19:25:07;;;;;;;15.32;3.85;;;;;;;;;;7016619;28;20047;-82
2021/05/25 19:28:27;;;;;;;10.95;3.25;;;;;;;;;;7020627;28;20044;-83
2021/05/25 19:31:47;;;;;;;11.55;2.70;;;;;;;;;;7020090;28;20093;-82
2021/05/25 19:35:09;;;;;;;12.40;3.40;;;;;;;;;;7009409;28;20474;-83
2021/05/25 19:38:29;;;;;;;9.15;3.03;;;;;;;;;;7022458;28;20090;-82
2021/05/25 19:41:49;;;;;;;7.22;3.13;;;;;;;;;;7003364;28;20056;-82
2021/05/25 19:45:11;;;;;;;8.70;2.95;;;;;;;;;;7021755;28;20130;-83
2021/05/25 19:48:31;;;;;;;9.60;2.80;;;;;;;;;;7022326;28;20055;-82
2021/05/25 19:51:51;;;;;;;7.07;3.20;;;;;;;;;;7017525;28;20135;-84
2021/05/25 19:55:14;;;;;;;9.52;2.70;;;;;;;;;;7018431;28;20835;-84
2021/05/25 19:58:34;;;;;;;10.30;2.70;;;;;;;;;;7019270;28;20051;-83
2021/05/25 20:01:55;;;;;;;6.90;2.70;;;;;;;;;;7021470;28;20040;-83
2021/05/25 20:05:16;;;;;;;5.28;2.30;;;;;;;;;;7019056;28;20056;-82
2021/05/25 20:08:37;;;;;;;8.48;2.42;;;;;;;;;;7019414;28;20036;-82
2021/05/25 20:11:57;;;;;;;12.27;2.50;;;;;;;;;;7001258;28;20442;-83
2021/05/25 20:15:19;;;;;;;7.80;2.55;;;;;;;;;;7000377;28;20405;-83
2021/05/25 20:18:40;;;;;;;7.97;2.83;;;;;;;;;;7004831;28;20915;-82
2021/05/25 20:22:00;;;;;;;4.30;2.22;;;;;;;;;;7005257;28;20064;-82
2021/05/25 20:25:20;;;;;;;4.88;2.17;;;;;;;;;;7010433;28;20052;-82
2021/05/25 20:28:41;;;;;;;8.68;2.28;;;;;;;;;;7007530;28;20127;-82
2021/05/25 20:32:02;;;;;;;8.18;2.03;;;;;;;;;;7021431;28;20047;-83
2021/05/25 20:39:08;;;;;;;;;;;;;;;;;;7018869;28;20135;-82
2021/05/25 20:42:29;;;;;;;3.92;1.75;;;;;;;;;;7023565;28;19916;-82
2021/05/25 20:45:49;;;;;;;9.88;2.70;;;;;;;;;;7025162;28;20091;-83